Clipper Mills, California
Current Conditions -  °F | °C
As of 4:20 AM on Friday 19 Dec 2014 (Local Time) from KGOO Reporting Station
Overcast Overcast  
Wind Chill: 39°   Ceiling: 3000
Heat Index: 43°   Visibility: 7mi
Dew Point: 37°   Wind: 7mph
Humidity: 81%   Direction: 180°S
Pressure: 30.14"   Gusts: NA
Location:  39.53°N, 121.16°W
Report Text: KGOO 191220Z AUTO 18006KT 7SM FEW021 BKN030 OVC045 06/03 A3014 RMK AO1
Loading
Personal Weather Stations






























Interactive Weather Map New forecast layout! Learn more

10-Day Weather Forecast

Advertisements
Track Severe Weather on mobile